Time;durP1;ratioP1;P1;durP2;ratioP2;P2;SDS_P1;SDS_P2;PMS_P1;PMS_P2;Temp;Humidity;BMP_temperature;BMP_pressure;BME280_temperature;BME280_humidity;BME280_pressure;Samples;Min_cycle;Max_cycle;Signal;HPM_P1;HPM_P2
2024/03/14 00:00:51;;;;;;;17.48;10.35;;;;;;;6.04;100.00;92618.81;4998991;28;20049;-83
2024/03/14 00:03:18;;;;;;;16.30;10.55;;;;;;;5.95;100.00;92612.53;5000979;28;20497;-82
2024/03/14 00:05:44;;;;;;;17.85;10.25;;;;;;;5.98;100.00;92612.03;5007394;28;20038;-83
2024/03/14 00:08:10;;;;;;;20.17;10.57;;;;;;;5.94;100.00;92612.75;5010222;28;20081;-84
2024/03/14 00:10:35;;;;;;;18.30;10.85;;;;;;;5.93;100.00;92619.00;5008818;28;20042;-83
2024/03/14 00:13:01;;;;;;;19.10;10.95;;;;;;;5.84;100.00;92605.69;5023679;28;20281;-84
2024/03/14 00:15:27;;;;;;;15.52;9.70;;;;;;;5.84;100.00;92609.06;5014651;28;20053;-83
2024/03/14 00:17:53;;;;;;;16.20;9.80;;;;;;;5.78;100.00;92604.13;5022831;28;20532;-83
2024/03/14 00:20:19;;;;;;;19.10;9.93;;;;;;;5.80;100.00;92617.63;5022910;28;20049;-83
2024/03/14 00:22:45;;;;;;;16.10;9.82;;;;;;;5.79;100.00;92605.69;5027878;28;20034;-83
2024/03/14 00:25:11;;;;;;;14.80;9.57;;;;;;;5.77;100.00;92621.53;5010754;28;20066;-83
2024/03/14 00:27:38;;;;;;;20.42;9.48;;;;;;;5.68;100.00;92604.84;4995680;28;20034;-83
2024/03/14 00:30:09;;;;;;;16.58;9.73;;;;;;;5.70;100.00;92609.81;5022444;28;20046;-83
2024/03/14 00:32:35;;;;;;;13.95;9.00;;;;;;;5.70;100.00;92612.41;5014845;28;20034;-83
2024/03/14 00:35:04;;;;;;;16.88;9.75;;;;;;;5.68;100.00;92609.28;5026540;28;20030;-83
2024/03/14 00:37:30;;;;;;;16.13;9.45;;;;;;;5.67;100.00;92612.88;5002230;28;20133;-84
2024/03/14 00:39:57;;;;;;;17.52;9.95;;;;;;;5.66;100.00;92608.75;5007009;28;20044;-84
2024/03/14 00:42:26;;;;;;;13.75;9.15;;;;;;;5.63;100.00;92610.03;5014159;28;20101;-83
2024/03/14 00:44:52;;;;;;;14.63;9.73;;;;;;;5.64;100.00;92611.59;5019393;28;20081;-83
2024/03/14 00:47:18;;;;;;;17.02;9.45;;;;;;;5.63;100.00;92617.81;5008933;28;20042;-82
2024/03/14 00:49:47;;;;;;;16.90;10.60;;;;;;;5.59;100.00;92612.34;4998364;28;20041;-84
2024/03/14 00:52:12;;;;;;;14.68;9.57;;;;;;;5.58;100.00;92615.19;5009279;28;20520;-83
2024/03/14 00:54:38;;;;;;;17.73;10.85;;;;;;;5.57;100.00;92619.59;5008557;28;20030;-84
2024/03/14 00:57:04;;;;;;;20.42;10.65;;;;;;;5.58;100.00;92609.97;5010749;28;20034;-84
2024/03/14 00:59:30;;;;;;;17.90;11.00;;;;;;;5.53;100.00;92607.38;5030312;28;20053;-83
2024/03/14 01:01:56;;;;;;;18.77;11.95;;;;;;;5.53;100.00;92607.38;5002768;28;20072;-83
2024/03/14 01:04:22;;;;;;;24.05;11.93;;;;;;;5.49;100.00;92601.88;5008681;28;20029;-84
2024/03/14 01:06:48;;;;;;;21.73;12.55;;;;;;;5.48;100.00;92605.53;5005033;28;20034;-85
2024/03/14 01:09:16;;;;;;;23.15;13.32;;;;;;;5.47;100.00;92601.38;5005958;28;20057;-84
2024/03/14 01:11:43;;;;;;;23.55;15.00;;;;;;;5.43;100.00;92592.53;5028864;28;20041;-85
2024/03/14 01:14:11;;;;;;;30.90;15.63;;;;;;;5.51;100.00;92604.25;5010479;28;20030;-84
2024/03/14 01:16:39;;;;;;;25.75;15.40;;;;;;;5.47;100.00;92609.16;5012664;28;20060;-84
2024/03/14 01:19:06;;;;;;;29.63;17.15;;;;;;;5.51;100.00;92605.00;5014471;28;20382;-84
2024/03/14 01:21:39;;;;;;;34.38;19.83;;;;;;;5.50;100.00;92603.47;5023649;28;20042;-85
2024/03/14 01:24:07;;;;;;;31.73;19.08;;;;;;;5.53;100.00;92604.78;5008676;28;20057;-84
2024/03/14 01:26:33;;;;;;;35.05;20.13;;;;;;;5.53;100.00;92602.94;5008064;28;20405;-84
2024/03/14 01:29:01;;;;;;;40.10;21.02;;;;;;;5.53;100.00;92607.38;5005249;28;20053;-83
2024/03/14 01:31:28;;;;;;;37.45;19.98;;;;;;;5.52;100.00;92601.41;5021138;28;20037;-84
2024/03/14 01:33:53;;;;;;;33.80;20.67;;;;;;;5.50;100.00;92598.28;5016472;28;20069;-83
2024/03/14 01:36:20;;;;;;;38.15;21.77;;;;;;;5.50;100.00;92598.28;5014990;28;20045;-83
2024/03/14 01:38:46;;;;;;;36.80;20.52;;;;;;;5.50;100.00;92598.28;5006877;28;20062;-84
2024/03/14 01:41:19;;;;;;;34.08;19.88;;;;;;;5.50;100.00;92600.09;4984687;28;20042;-84
2024/03/14 01:44:05;;;;;;;39.00;21.55;;;;;;;5.50;100.00;92592.31;5004801;28;20044;-84
2024/03/14 01:46:33;;;;;;;36.70;22.60;;;;;;;5.49;100.00;92590.72;5006162;28;20091;-83
2024/03/14 01:49:00;;;;;;;46.40;24.58;;;;;;;5.47;100.00;92588.41;4986715;28;20038;-84
2024/03/14 01:51:28;;;;;;;41.75;23.52;;;;;;;5.48;100.00;92586.56;5009938;28;20444;-85
2024/03/14 01:53:54;;;;;;;44.70;24.48;;;;;;;5.46;100.00;92586.81;5012627;28;20094;-82
2024/03/14 01:56:23;;;;;;;40.83;24.23;;;;;;;5.40;100.00;92583.44;5007779;28;20045;-84
2024/03/14 01:58:50;;;;;;;40.70;23.48;;;;;;;5.40;100.00;92578.22;5021545;28;20034;-84
2024/03/14 02:01:17;;;;;;;43.45;22.17;;;;;;;5.43;100.00;92582.13;5012081;28;20061;-84
2024/03/14 02:03:51;;;;;;;45.30;22.60;;;;;;;5.40;100.00;92577.44;5020521;28;20053;-84
2024/03/14 02:06:24;;;;;;;34.63;19.92;;;;;;;5.41;100.00;92581.59;5008433;28;20072;-84
2024/03/14 02:08:50;;;;;;;33.20;19.52;;;;;;;5.39;100.00;92581.84;5007598;28;20208;-84
2024/03/14 02:11:15;;;;;;;33.10;19.23;;;;;;;5.39;100.00;92581.06;5014126;28;20097;-84
2024/03/14 02:13:41;;;;;;;37.80;19.67;;;;;;;5.35;100.00;92578.19;4997660;28;20038;-84
2024/03/14 02:16:06;;;;;;;33.13;19.10;;;;;;;5.33;100.00;92576.88;5011259;28;20037;-84
2024/03/14 02:18:32;;;;;;;36.40;19.25;;;;;;;5.32;100.00;92580.53;5006447;28;20030;-84
2024/03/14 02:20:57;;;;;;;29.95;18.50;;;;;;;5.32;100.00;92572.72;4998254;28;20044;-84
2024/03/14 02:23:23;;;;;;;36.72;18.83;;;;;;;5.20;100.00;92558.13;5013410;28;20034;-85
2024/03/14 02:25:49;;;;;;;37.85;19.15;;;;;;;5.31;100.00;92569.34;5013191;28;20058;-85
2024/03/14 02:28:14;;;;;;;34.33;19.08;;;;;;;5.31;100.00;92576.34;5015775;28;20065;-84
2024/03/14 02:30:40;;;;;;;32.03;18.50;;;;;;;5.25;100.00;92564.38;4999894;28;20026;-84
2024/03/14 02:33:06;;;;;;;27.85;17.05;;;;;;;5.28;100.00;92563.88;4995288;28;20042;-84
2024/03/14 02:35:31;;;;;;;30.70;16.50;;;;;;;5.26;100.00;92577.09;5003059;28;20066;-83
2024/03/14 02:37:57;;;;;;;27.05;15.82;;;;;;;5.21;100.00;92562.28;5010095;28;20038;-84
2024/03/14 02:40:23;;;;;;;28.48;15.80;;;;;;;5.17;100.00;92557.84;5009962;28;20366;-84
2024/03/14 02:42:49;;;;;;;28.67;14.90;;;;;;;5.15;100.00;92563.28;5013102;28;20861;-84
2024/03/14 02:45:14;;;;;;;28.67;16.33;;;;;;;5.11;100.00;92557.03;5013586;28;20029;-83
2024/03/14 02:47:40;;;;;;;31.48;17.17;;;;;;;5.06;100.00;92554.41;5016865;28;20104;-83
2024/03/14 02:50:08;;;;;;;31.10;17.00;;;;;;;5.11;100.00;92559.63;5013847;28;20025;-83
2024/03/14 02:52:33;;;;;;;32.40;17.23;;;;;;;5.10;100.00;92560.66;5015170;28;20502;-83
2024/03/14 02:54:59;;;;;;;25.40;15.32;;;;;;;5.09;100.00;92551.31;5005316;28;20097;-83
2024/03/14 02:57:24;;;;;;;22.95;14.38;;;;;;;5.07;100.00;92560.38;5012087;28;20282;-84
2024/03/14 02:59:52;;;;;;;24.25;13.13;;;;;;;5.03;100.00;92551.53;5007749;28;20120;-84
2024/03/14 03:02:19;;;;;;;20.80;11.65;;;;;;;5.06;100.00;92551.81;5009483;28;20038;-83
2024/03/14 03:04:45;;;;;;;19.00;10.63;;;;;;;5.05;100.00;92550.25;5013942;28;20493;-83
2024/03/14 03:07:10;;;;;;;19.45;10.98;;;;;;;5.04;100.00;92551.28;5008449;28;20038;-84
2024/03/14 03:09:37;;;;;;;18.30;10.45;;;;;;;5.03;100.00;92541.94;5015622;28;20036;-84
2024/03/14 03:12:04;;;;;;;20.42;11.02;;;;;;;5.02;100.00;92540.34;5012040;28;20040;-84
2024/03/14 03:14:29;;;;;;;20.55;11.20;;;;;;;5.03;100.00;92538.56;5015433;28;20030;-84
2024/03/14 03:16:56;;;;;;;16.42;10.68;;;;;;;5.00;100.00;92532.06;5007476;28;20109;-84
2024/03/14 03:19:22;;;;;;;14.80;9.07;;;;;;;5.01;100.00;92536.97;5011578;28;20030;-84
2024/03/14 03:21:48;;;;;;;12.77;7.85;;;;;;;4.99;100.00;92541.63;5014829;28;20065;-84
2024/03/14 03:24:13;;;;;;;10.77;6.47;;;;;;;4.95;100.00;92532.81;5017578;28;20152;-84
2024/03/14 03:26:41;;;;;;;10.00;5.68;;;;;;;4.93;100.00;92536.66;5005394;28;20141;-84
2024/03/14 03:29:06;;;;;;;8.10;5.03;;;;;;;4.91;100.00;92533.53;5009025;28;20042;-83
2024/03/14 03:31:32;;;;;;;8.70;5.03;;;;;;;4.87;100.00;92530.69;5027753;28;20042;-84
2024/03/14 03:33:57;;;;;;;9.02;5.10;;;;;;;4.86;100.00;92536.88;5009190;28;20034;-83
2024/03/14 03:36:23;;;;;;;9.02;5.38;;;;;;;4.86;100.00;92536.09;5001137;28;20038;-84
2024/03/14 03:38:49;;;;;;;12.15;6.75;;;;;;;4.87;100.00;92535.09;5013695;28;20025;-84
2024/03/14 03:41:16;;;;;;;12.07;7.32;;;;;;;4.87;100.00;92532.50;5009039;28;20053;-82
2024/03/14 03:43:43;;;;;;;13.18;7.75;;;;;;;4.87;100.00;92533.28;5015487;28;20037;-84
2024/03/14 03:46:09;;;;;;;14.30;7.95;;;;;;;4.87;100.00;92532.50;5004402;28;20061;-83
2024/03/14 03:48:38;;;;;;;14.73;7.90;;;;;;;4.85;100.00;92535.31;5012453;28;20037;-84
2024/03/14 03:51:04;;;;;;;12.80;6.95;;;;;;;4.87;100.00;92532.50;5008040;28;20058;-83
2024/03/14 03:53:32;;;;;;;11.02;6.55;;;;;;;4.85;100.00;92534.56;5013748;28;20042;-84
2024/03/14 03:56:00;;;;;;;9.43;5.72;;;;;;;4.83;100.00;92531.44;5029578;28;20037;-83
2024/03/14 03:58:25;;;;;;;7.03;4.85;;;;;;;4.85;100.00;92540.53;5007783;28;20086;-84
2024/03/14 04:00:54;;;;;;;7.95;3.88;;;;;;;4.83;100.00;92534.03;5004943;28;20222;-84
2024/03/14 04:03:20;;;;;;;6.53;3.53;;;;;;;4.81;100.00;92539.44;5011120;28;20069;-84
2024/03/14 04:05:46;;;;;;;5.50;3.30;;;;;;;4.82;100.00;92541.03;5010078;28;20095;-83
2024/03/14 04:08:14;;;;;;;5.43;2.83;;;;;;;4.82;100.00;92545.41;5024173;28;20121;-84
2024/03/14 04:10:40;;;;;;;4.97;2.80;;;;;;;4.82;100.00;92537.63;5020771;28;20065;-84
2024/03/14 04:13:06;;;;;;;4.80;2.60;;;;;;;4.80;100.00;92537.91;5011649;28;20101;-83
2024/03/14 04:15:33;;;;;;;4.63;2.40;;;;;;;4.80;100.00;92541.25;5015347;28;20100;-84
2024/03/14 04:18:00;;;;;;;6.60;2.22;;;;;;;4.79;100.00;92542.28;5030268;28;20026;-84
2024/03/14 04:20:27;;;;;;;4.35;2.47;;;;;;;4.77;100.00;92541.78;5001365;28;20054;-83
2024/03/14 04:22:56;;;;;;;6.28;3.35;;;;;;;4.75;100.00;92537.84;5009007;28;20497;-83
2024/03/14 04:25:21;;;;;;;4.88;2.47;;;;;;;4.76;100.00;92540.19;5007787;28;20050;-83
2024/03/14 04:27:51;;;;;;;4.68;2.47;;;;;;;4.76;100.00;92540.19;5010518;28;20078;-83
2024/03/14 04:30:20;;;;;;;4.25;2.50;;;;;;;4.75;100.00;92535.25;5005141;28;20540;-82
2024/03/14 04:32:47;;;;;;;3.83;2.20;;;;;;;4.73;100.00;92543.28;5012232;28;20033;-84
2024/03/14 04:35:15;;;;;;;4.00;2.15;;;;;;;4.71;100.00;92540.16;5024882;28;20037;-83
2024/03/14 04:37:47;;;;;;;3.75;2.20;;;;;;;4.66;100.00;92537.53;5006314;28;20026;-83
2024/03/14 04:40:19;;;;;;;8.82;2.30;;;;;;;4.65;100.00;92538.56;5014619;28;20129;-83
2024/03/14 04:42:46;;;;;;;4.50;2.55;;;;;;;4.60;100.00;92538.53;5009765;28;20097;-83
2024/03/14 04:45:21;;;;;;;6.75;2.90;;;;;;;4.58;100.00;92536.16;5007799;28;20405;-83
2024/03/14 04:47:50;;;;;;;8.30;3.95;;;;;;;4.54;100.00;92532.50;5009291;28;20040;-85
2024/03/14 04:50:21;;;;;;;8.32;4.80;;;;;;;4.57;100.00;92539.00;5016626;28;20417;-83
2024/03/14 04:52:48;;;;;;;8.48;5.38;;;;;;;4.56;100.00;92537.44;5016380;28;20037;-83
2024/03/14 04:55:17;;;;;;;14.18;7.00;;;;;;;4.53;100.00;92538.72;5009685;28;20037;-84
2024/03/14 04:57:45;;;;;;;14.07;8.13;;;;;;;4.51;100.00;92537.41;5006637;28;20417;-83
2024/03/14 05:00:20;;;;;;;13.15;8.35;;;;;;;4.46;100.00;92537.34;5007023;28;20026;-83
2024/03/14 05:02:49;;;;;;;13.93;8.25;;;;;;;4.47;100.00;92539.72;5012888;28;20052;-84
2024/03/14 05:05:21;;;;;;;12.02;7.45;;;;;;;4.47;100.00;92541.53;5001029;28;20085;-84
2024/03/14 05:07:47;;;;;;;12.98;8.05;;;;;;;4.42;100.00;92538.91;5028111;28;20038;-83
2024/03/14 05:10:14;;;;;;;12.00;8.13;;;;;;;4.45;100.00;92538.41;5001188;28;20048;-84
2024/03/14 05:12:40;;;;;;;13.65;8.38;;;;;;;4.44;100.00;92534.25;4998104;28;20042;-83
2024/03/14 05:15:08;;;;;;;12.90;8.25;;;;;;;4.46;100.00;92542.53;5016611;28;20068;-83
2024/03/14 05:17:36;;;;;;;12.57;8.20;;;;;;;4.45;100.00;92541.75;5017171;28;20536;-83
2024/03/14 05:20:01;;;;;;;15.10;8.30;;;;;;;4.44;100.00;92539.44;5007327;28;20231;-83
2024/03/14 05:22:32;;;;;;;16.58;9.27;;;;;;;4.44;100.00;92539.44;5015414;28;20038;-81
2024/03/14 05:25:06;;;;;;;17.25;9.88;;;;;;;4.44;100.00;92534.25;4998586;28;20069;-83
2024/03/14 05:27:32;;;;;;;15.93;10.13;;;;;;;4.45;100.00;92541.75;5012131;28;20030;-82
2024/03/14 05:29:59;;;;;;;16.42;10.52;;;;;;;4.43;100.00;92533.44;5013860;28;20030;-84
2024/03/14 05:32:27;;;;;;;14.30;8.27;;;;;;;4.51;100.00;92537.41;5005926;28;20038;-84
2024/03/14 05:34:57;;;;;;;17.55;9.60;;;;;;;4.50;100.00;92534.06;5011440;28;20088;-84
2024/03/14 05:37:24;;;;;;;16.25;9.93;;;;;;;4.54;100.00;92537.69;5005235;28;20030;-85
2024/03/14 05:39:50;;;;;;;22.55;12.63;;;;;;;4.54;100.00;92532.50;4991365;28;20053;-85
2024/03/14 05:42:18;;;;;;;19.98;11.95;;;;;;;4.56;100.00;92540.03;5000251;28;20080;-82
2024/03/14 05:44:50;;;;;;;18.17;11.55;;;;;;;4.59;100.00;92548.13;5005727;28;20030;-83
2024/03/14 05:47:16;;;;;;;;;;;;;;;4.65;100.00;92542.97;5006268;28;20034;-84
2024/03/14 05:49:41;;;;;;;17.45;10.65;;;;;;;4.71;100.00;92550.53;5005349;28;19925;-83
2024/03/14 05:52:08;;;;;;;18.35;10.57;;;;;;;4.76;100.00;92545.38;5010310;28;20299;-83
2024/03/14 05:54:34;;;;;;;17.95;10.55;;;;;;;4.80;100.00;92548.28;5023035;28;20485;-84
2024/03/14 05:56:59;;;;;;;17.85;11.02;;;;;;;4.80;100.00;92537.91;5010296;28;20125;-84
2024/03/14 05:59:25;;;;;;;15.88;9.85;;;;;;;4.89;100.00;92551.19;5011259;28;20088;-85
2024/03/14 06:01:53;;;;;;;15.43;8.75;;;;;;;4.93;100.00;92542.66;5007392;28;20052;-81
2024/03/14 06:04:21;;;;;;;17.77;9.98;;;;;;;5.03;100.00;92549.72;5006333;28;20048;-80
2024/03/14 06:06:48;;;;;;;13.52;8.10;;;;;;;5.11;100.00;92545.84;5007798;28;20034;-82
2024/03/14 06:09:15;;;;;;;12.27;7.75;;;;;;;5.21;100.00;92551.91;5009032;28;20041;-81
2024/03/14 06:11:42;;;;;;;10.60;6.72;;;;;;;5.31;100.00;92556.34;5007094;28;20072;-80
2024/03/14 06:14:07;;;;;;;11.60;6.72;;;;;;;5.40;100.00;92551.47;5009143;28;20045;-81
2024/03/14 06:16:33;;;;;;;10.88;6.10;;;;;;;5.43;100.00;92545.78;5002384;28;20042;-81
2024/03/14 06:18:59;;;;;;;8.10;5.15;;;;;;;5.55;100.00;92554.16;5003881;28;20085;-80
2024/03/14 06:21:25;;;;;;;7.63;4.70;;;;;;;5.67;100.00;92553.94;5001554;28;20072;-81
2024/03/14 06:23:51;;;;;;;7.47;3.72;;;;;;;5.78;100.00;92546.97;5009549;28;20032;-80
2024/03/14 06:26:17;;;;;;;6.05;3.72;;;;;;;5.96;100.00;92553.53;5008642;28;20127;-81
2024/03/14 06:28:45;;;;;;;4.60;2.67;;;;;;;6.08;100.00;92551.53;5007730;28;20037;-81
2024/03/14 06:31:14;;;;;;;7.18;3.30;;;;;;;6.30;100.00;92553.09;5005461;28;20029;-81
2024/03/14 06:33:40;;;;;;;5.97;2.55;;;;;;;6.43;100.00;92547.41;5009130;28;20658;-81
2024/03/14 06:36:07;;;;;;;4.43;2.03;;;;;;;6.55;100.00;92549.75;5006171;28;20042;-82
2024/03/14 06:38:32;;;;;;;4.03;2.13;;;;;;;6.70;100.00;92557.56;5004860;28;20026;-80
2024/03/14 06:40:58;;;;;;;4.78;2.63;;;;;;;6.88;100.00;92556.25;5020993;28;20050;-80
2024/03/14 06:43:24;;;;;;;4.15;2.50;;;;;;;7.11;100.00;92560.16;5007660;28;20033;-81
2024/03/14 06:45:50;;;;;;;3.92;2.35;;;;;;;7.37;100.00;92560.13;5007040;28;20044;-80
2024/03/14 06:48:15;;;;;;;5.40;2.40;;;;;;;7.66;100.00;92563.69;5011100;28;20026;-80
2024/03/14 06:50:41;;;;;;;3.70;2.20;;;;;;;7.97;100.00;92562.78;5008946;28;20034;-80
2024/03/14 06:53:07;;;;;;;3.53;2.20;;;;;;;8.25;100.00;92553.53;5017096;28;20034;-80
2024/03/14 06:55:33;;;;;;;5.07;2.30;;;;;;;8.61;100.00;92556.72;5017377;28;20037;-80
2024/03/14 06:57:59;;;;;;;5.85;2.85;;;;;;;9.10;100.00;92560.28;5031867;28;20091;-80
2024/03/14 07:00:26;;;;;;;4.88;2.92;;;;;;;9.54;100.00;92567.16;5007695;28;20046;-80
2024/03/14 07:02:52;;;;;;;7.95;3.85;;;;;;;10.09;100.00;92564.22;5017622;28;20459;-82
2024/03/14 07:05:19;;;;;;;7.70;4.00;;;;;;;10.58;100.00;92573.50;5001823;28;20476;-82
2024/03/14 07:07:45;;;;;;;7.32;3.92;;;;;;;11.15;100.00;92571.63;5004491;28;20032;-81
2024/03/14 07:10:14;;;;;;;6.78;4.50;;;;;;;11.45;100.00;92567.69;5009653;28;20046;-81
2024/03/14 07:12:42;;;;;;;7.78;4.40;;;;;;;11.65;96.36;92577.06;5003285;28;20052;-82
2024/03/14 07:15:08;;;;;;;6.88;4.30;;;;;;;11.95;91.84;92577.56;5010754;28;20436;-80
2024/03/14 07:17:34;;;;;;;7.35;4.53;;;;;;;12.22;90.80;92576.78;5005349;28;20022;-82
2024/03/14 07:20:10;;;;;;;7.60;4.28;;;;;;;12.69;86.02;92584.47;5001637;28;20504;-81
2024/03/14 07:22:43;;;;;;;8.45;4.80;;;;;;;13.03;80.77;92578.72;5004163;28;20045;-83
2024/03/14 07:25:09;;;;;;;9.52;6.43;;;;;;;13.60;79.64;92580.81;5007204;28;20062;-82
2024/03/14 07:27:35;;;;;;;11.43;7.15;;;;;;;13.97;75.12;92584.06;5003676;28;20037;-82
2024/03/14 07:30:07;;;;;;;11.65;7.32;;;;;;;14.20;76.02;92581.34;5004955;28;20309;-82
2024/03/14 07:32:35;;;;;;;13.05;8.27;;;;;;;14.12;74.17;92588.91;5004253;28;20113;-82
2024/03/14 07:35:02;;;;;;;11.13;7.15;;;;;;;14.18;70.15;92584.28;5006849;28;20432;-82
2024/03/14 07:37:28;;;;;;;13.10;7.28;;;;;;;14.22;73.60;92587.84;5003360;28;20038;-82
2024/03/14 07:39:54;;;;;;;11.95;7.75;;;;;;;14.15;77.32;92584.91;5001616;28;20409;-82
2024/03/14 07:42:21;;;;;;;7.82;4.70;;;;;;;13.88;69.83;92586.66;4997218;28;20073;-82
2024/03/14 07:44:47;;;;;;;7.13;3.22;;;;;;;13.29;73.69;92580.78;5004485;28;20044;-82
2024/03/14 07:47:25;;;;;;;4.88;3.38;;;;;;;12.44;78.84;92588.44;5008088;28;20511;-82
2024/03/14 07:49:53;;;;;;;6.05;3.42;;;;;;;12.31;82.46;92587.38;5003161;28;20061;-82
2024/03/14 07:52:19;;;;;;;5.65;3.13;;;;;;;12.02;85.38;92592.94;4991297;28;20037;-82
2024/03/14 07:54:47;;;;;;;5.65;3.17;;;;;;;12.13;86.29;92590.91;5006113;28;20041;-82
2024/03/14 07:57:17;;;;;;;5.35;3.08;;;;;;;12.00;87.55;92593.25;5005781;28;20030;-83
2024/03/14 07:59:43;;;;;;;5.38;3.20;;;;;;;11.71;89.72;92590.06;5007664;28;20041;-82
2024/03/14 08:02:12;;;;;;;5.40;3.45;;;;;;;11.57;88.73;92600.53;5005836;28;20021;-81
2024/03/14 08:04:38;;;;;;;8.38;3.80;;;;;;;11.16;91.77;92598.59;5001959;28;20038;-81
2024/03/14 08:07:17;;;;;;;8.63;4.10;;;;;;;11.10;88.17;92602.34;5004152;28;20049;-82
2024/03/14 08:09:44;;;;;;;8.90;3.95;;;;;;;10.84;88.55;92608.75;4999412;28;20042;-82
2024/03/14 08:12:09;;;;;;;6.53;4.00;;;;;;;10.88;87.97;92613.44;5005884;28;20060;-81
2024/03/14 08:14:35;;;;;;;10.80;4.45;;;;;;;10.86;88.25;92611.09;5024582;28;20037;-82
2024/03/14 08:17:06;;;;;;;7.97;4.82;;;;;;;11.09;88.80;92606.03;5013003;28;20123;-81
2024/03/14 08:19:33;;;;;;;9.77;5.63;;;;;;;10.99;95.00;92607.75;5010637;28;20048;-82
2024/03/14 08:21:59;;;;;;;8.18;4.65;;;;;;;11.49;88.60;92611.69;4994366;28;20048;-82
2024/03/14 08:24:28;;;;;;;6.28;4.07;;;;;;;11.77;85.32;92615.91;5000156;28;20054;-81
2024/03/14 08:27:05;;;;;;;8.57;5.28;;;;;;;11.57;87.22;92613.66;5004490;28;20034;-81
2024/03/14 08:29:30;;;;;;;8.50;4.20;;;;;;;11.79;87.54;92611.16;5003750;28;20028;-81
2024/03/14 08:31:59;;;;;;;7.82;4.28;;;;;;;11.56;83.02;92614.72;5001865;28;20041;-82
2024/03/14 08:34:27;;;;;;;6.25;4.05;;;;;;;11.46;85.10;92619.06;5025032;28;20034;-81
2024/03/14 08:36:54;;;;;;;8.25;4.25;;;;;;;11.40;84.11;92622.06;5005821;28;20049;-83
2024/03/14 08:39:22;;;;;;;8.27;4.40;;;;;;;11.24;86.87;92622.31;5011242;28;20034;-83
2024/03/14 08:41:48;;;;;;;7.22;3.65;;;;;;;11.40;86.33;92614.19;5009475;28;20747;-83
2024/03/14 08:44:13;;;;;;;7.25;4.40;;;;;;;11.37;89.43;92625.25;5021221;28;20556;-84
2024/03/14 08:46:39;;;;;;;8.60;4.90;;;;;;;11.38;87.36;92614.47;4999540;28;20315;-84
2024/03/14 08:49:04;;;;;;;6.90;3.83;;;;;;;11.52;92.56;92618.97;5008827;28;20030;-83
2024/03/14 08:51:31;;;;;;;7.80;4.30;;;;;;;11.50;89.73;92615.88;5000730;28;20053;-83
2024/03/14 08:54:09;;;;;;;5.63;3.70;;;;;;;11.45;91.27;92616.72;5006731;28;20034;-84
2024/03/14 08:56:36;;;;;;;7.57;4.53;;;;;;;11.32;90.73;92620.84;4997491;28;20351;-84
2024/03/14 08:59:02;;;;;;;9.25;4.70;;;;;;;11.21;93.20;92622.09;5003526;28;20030;-83
2024/03/14 09:01:29;;;;;;;7.82;4.70;;;;;;;11.27;95.89;92620.94;5008906;28;20115;-83
2024/03/14 09:03:55;;;;;;;9.13;4.45;;;;;;;11.52;90.25;92621.59;5007959;28;20185;-83
2024/03/14 09:06:21;;;;;;;8.18;5.10;;;;;;;11.71;90.48;92621.53;5000359;28;20121;-83
2024/03/14 09:08:46;;;;;;;8.40;4.32;;;;;;;12.04;88.10;92622.28;4998846;28;20085;-84
2024/03/14 09:11:13;;;;;;;9.80;4.30;;;;;;;12.19;86.01;92629.88;4998778;28;20038;-83
2024/03/14 09:13:40;;;;;;;6.68;3.47;;;;;;;12.24;86.39;92627.13;5007913;28;20501;-83
2024/03/14 09:16:06;;;;;;;7.50;4.18;;;;;;;11.93;86.64;92631.41;5023941;28;20125;-83
2024/03/14 09:18:32;;;;;;;8.13;4.32;;;;;;;12.15;87.81;92618.41;5005109;28;20135;-84
2024/03/14 09:20:58;;;;;;;6.93;4.28;;;;;;;12.18;88.51;92628.31;5000957;28;20041;-83
2024/03/14 09:23:29;;;;;;;9.90;5.20;;;;;;;12.29;87.83;92626.25;5004451;28;20034;-83
2024/03/14 09:25:57;;;;;;;7.18;3.72;;;;;;;12.35;83.49;92621.69;5001399;28;20045;-83
2024/03/14 09:28:26;;;;;;;7.28;4.20;;;;;;;12.60;81.72;92629.06;5007126;28;20030;-83
2024/03/14 09:30:57;;;;;;;7.13;4.25;;;;;;;12.96;84.20;92628.28;5006741;28;20445;-84
2024/03/14 09:33:30;;;;;;;10.98;4.60;;;;;;;13.05;81.44;92628.34;5018139;28;20030;-84
2024/03/14 09:35:56;;;;;;;8.57;4.40;;;;;;;13.18;79.29;92632.03;5004294;28;20076;-83
2024/03/14 09:38:22;;;;;;;6.05;3.72;;;;;;;13.19;72.87;92636.19;5008967;28;20026;-83
2024/03/14 09:40:47;;;;;;;5.43;3.30;;;;;;;13.25;71.61;92632.38;5002082;28;20046;-84
2024/03/14 09:43:14;;;;;;;5.28;3.03;;;;;;;12.98;73.43;92630.63;4998013;28;20030;-84
2024/03/14 09:45:44;;;;;;;5.00;3.17;;;;;;;13.22;75.72;92633.75;5005080;28;20428;-84
2024/03/14 09:48:10;;;;;;;5.22;3.03;;;;;;;13.26;72.23;92626.03;5002919;28;20034;-83
2024/03/14 09:50:37;;;;;;;6.28;3.28;;;;;;;13.79;73.83;92625.31;5005359;28;20498;-84
2024/03/14 09:53:03;;;;;;;5.45;3.08;;;;;;;14.40;68.57;92622.16;5000040;28;20033;-83
2024/03/14 09:55:30;;;;;;;7.20;3.20;;;;;;;14.74;69.38;92627.50;5001143;28;20076;-83
2024/03/14 09:58:01;;;;;;;6.65;3.28;;;;;;;14.49;64.87;92634.25;5002376;28;20034;-83
2024/03/14 10:00:27;;;;;;;5.32;2.80;;;;;;;14.66;64.54;92636.19;5003335;28;20042;-82
2024/03/14 10:02:53;;;;;;;5.20;2.75;;;;;;;14.51;69.49;92628.69;5001639;28;20164;-82
2024/03/14 10:05:19;;;;;;;7.65;3.53;;;;;;;14.14;74.84;92639.41;5003821;28;20102;-83
2024/03/14 10:07:46;;;;;;;6.15;3.10;;;;;;;13.82;75.72;92629.19;4985656;28;20038;-83
2024/03/14 10:10:12;;;;;;;4.15;2.47;;;;;;;13.94;70.76;92632.06;5006594;28;20034;-83
2024/03/14 10:12:37;;;;;;;7.20;4.63;;;;;;;13.60;67.10;92638.69;5003807;28;20025;-83
2024/03/14 10:15:12;;;;;;;7.10;3.85;;;;;;;13.85;73.25;92628.59;5018783;28;20129;-82
2024/03/14 10:17:40;;;;;;;5.05;2.50;;;;;;;13.88;72.86;92634.03;5002130;28;20092;-83
2024/03/14 10:20:13;;;;;;;5.15;3.20;;;;;;;13.70;72.01;92621.88;5006777;28;20095;-83
2024/03/14 10:22:40;;;;;;;5.72;2.97;;;;;;;13.47;71.30;92626.38;5002807;28;20045;-84
2024/03/14 10:25:38;;;;;;;5.40;3.15;;;;;;;13.32;72.68;92622.25;5002647;28;20140;-83
2024/03/14 10:28:17;;;;;;;6.03;3.45;;;;;;;13.15;74.75;92632.59;4999151;28;20497;-83
2024/03/14 10:30:57;;;;;;;7.40;3.53;;;;;;;13.21;75.43;92631.41;5002158;28;20042;-82
2024/03/14 10:33:26;;;;;;;5.80;3.90;;;;;;;13.25;72.68;92625.25;5002434;28;20041;-83
2024/03/14 10:35:58;;;;;;;6.03;3.53;;;;;;;13.53;72.32;92636.47;5008371;28;20616;-82
2024/03/14 10:38:28;;;;;;;7.15;4.35;;;;;;;13.39;71.48;92627.84;5002287;28;20037;-83
2024/03/14 10:41:02;;;;;;;6.43;4.13;;;;;;;13.30;69.76;92629.66;5004878;28;20038;-83
2024/03/14 10:43:33;;;;;;;7.90;3.95;;;;;;;13.52;75.05;92624.38;5018424;28;20460;-83
2024/03/14 10:45:59;;;;;;;6.50;3.33;;;;;;;13.81;71.17;92617.91;5003157;28;20120;-82
2024/03/14 10:48:26;;;;;;;6.63;3.97;;;;;;;13.97;71.24;92614.88;5017079;28;20402;-86
2024/03/14 10:50:56;;;;;;;8.50;4.63;;;;;;;14.05;68.53;92622.00;5004053;28;20575;-82
2024/03/14 10:53:23;;;;;;;8.77;4.78;;;;;;;14.03;67.91;92624.97;5001601;28;20034;-82
2024/03/14 10:55:54;;;;;;;7.47;4.68;;;;;;;13.85;68.61;92615.44;5003579;28;20101;-81
2024/03/14 10:58:23;;;;;;;7.93;4.85;;;;;;;13.90;68.90;92625.84;5006375;28;20113;-81
2024/03/14 11:00:52;;;;;;;10.80;6.10;;;;;;;13.89;69.87;92619.81;5001346;28;20022;-82
2024/03/14 11:03:18;;;;;;;14.57;7.22;;;;;;;13.85;69.03;92620.72;5005907;28;20147;-81
2024/03/14 11:05:52;;;;;;;8.25;5.57;;;;;;;14.15;67.47;92613.84;5007761;28;20122;-80
2024/03/14 11:08:21;;;;;;;12.10;6.72;;;;;;;14.20;66.90;92613.72;5008475;28;20096;-81
2024/03/14 11:10:50;;;;;;;9.85;6.15;;;;;;;14.03;69.15;92613.66;5012699;28;20182;-81
2024/03/14 11:13:25;;;;;;;9.43;6.05;;;;;;;13.95;70.76;92613.31;5004634;28;20030;-82
2024/03/14 11:15:54;;;;;;;9.43;5.90;;;;;;;14.24;68.66;92612.03;5012036;28;20125;-82
2024/03/14 11:18:24;;;;;;;10.60;7.00;;;;;;;13.99;68.35;92607.44;5003921;28;20026;-82
2024/03/14 11:20:54;;;;;;;14.48;6.43;;;;;;;14.40;67.27;92612.38;5005331;28;20710;-82
2024/03/14 11:23:24;;;;;;;13.13;6.53;;;;;;;14.57;67.49;92601.16;5007891;28;20053;-81
2024/03/14 11:25:57;;;;;;;10.57;5.68;;;;;;;14.86;65.63;92599.78;5006478;28;20104;-82
2024/03/14 11:28:26;;;;;;;8.95;5.60;;;;;;;14.83;68.57;92597.75;5021412;28;20048;-82